Darstellungsparameter: Aktuell verwendete Einstellungen:
Skalierung der Graphiken ... ?
xyx+y,   Skalierungsfaktor:      Skalierung: Modus: x, Faktor: 1
Darstellungszeitraum ... ?
Vom - - bis: - -   Zeitraum: 22.05.2020 - 22.05.2020
Min/Max/Avg-Anzeige ... ?
Zeige MMA aktuell
Zeige MMA Monat
Zeige MMA alles
Zeige --A aktuell
Zeige --A Monat
Zeige --A alles
Keine MMA-Anzeige
MMA:
Average (ber die Originaldaten)
MMA-Basis: 22.05.2020 - 22.05.2020
Quicknavigation für Darstellung... ?
Tage:      1T, 2T, 3T, 5T -1T -2T -3T -5T +1T +2T +3T +5T
Wochen: 1W, 2W, 3W -1W -2W -3W +1W +2W +3W
Monate: 1M, 3M, 6M -1M -3M -6M +1M +3M +6M
Jahre:    1J, 3J, 5J, 10J -1J -3J -5J -10J +1J +3J +5J +10J
Nutze für die Darstellung ... ?
Originaldaten oder Mittelwerte auf ...
Stundenbasis Tagesbasis Wochenbasis
Monatsbasis Jahresbasis      Datenbasis: Original-Daten
Darstellen als:
Statistik (Auto) Statistik J:M      Darstellung:
Zur Graphik,    zurück zur Übersicht aller Sensoren.
 
Tabellarische Datenbersicht: ?
 
Sensor: Nr:Datum:Temp:Abs-Feuchte:Windchill:Wind:
Aussen-T/F 1 22-05-2020 00:00:00 18.1 C 11.59 g/m*3 18.1 C 3.2 km/h
2 22-05-2020 00:05:00 17.9 C 11.45 g/m*3 17.9 C 3.2 km/h
3 22-05-2020 00:10:00 17.9 C 11.45 g/m*3 17.9 C 3.2 km/h
4 22-05-2020 00:15:00 17.8 C 11.38 g/m*3 17.8 C 0 km/h
5 22-05-2020 00:20:00 17.7 C 11.47 g/m*3 17.7 C 0 km/h
6 22-05-2020 00:25:00 17.6 C 11.4 g/m*3 17.6 C 1.6 km/h
7 22-05-2020 00:30:00 17.5 C 11.33 g/m*3 17.5 C 0 km/h
8 22-05-2020 00:35:00 17.4 C 11.26 g/m*3 17.4 C 1.6 km/h
9 22-05-2020 00:40:00 17.4 C 11.41 g/m*3 17.4 C 1.6 km/h
10 22-05-2020 00:45:00 17.3 C 11.34 g/m*3 17.3 C 0 km/h
11 22-05-2020 00:50:00 17.2 C 11.28 g/m*3 17.2 C 0 km/h
12 22-05-2020 00:55:00 16.9 C 11.08 g/m*3 16.9 C 0 km/h
13 22-05-2020 01:00:00 16.8 C 11.15 g/m*3 16.8 C 0 km/h
14 22-05-2020 01:05:00 16.7 C 11.08 g/m*3 16.7 C 0 km/h
15 22-05-2020 01:10:00 16.6 C 11.16 g/m*3 16.6 C 0 km/h
16 22-05-2020 01:15:00 16.4 C 11.03 g/m*3 16.4 C 0 km/h
17 22-05-2020 01:20:00 16.3 C 10.96 g/m*3 16.3 C 0 km/h
18 22-05-2020 01:25:00 16.3 C 11.1 g/m*3 16.3 C 0 km/h
19 22-05-2020 01:30:00 16.2 C 11.03 g/m*3 16.2 C 0 km/h
20 22-05-2020 01:35:00 16.1 C 10.97 g/m*3 16.1 C 0 km/h
21 22-05-2020 01:40:00 15.9 C 10.97 g/m*3 15.9 C 0 km/h
22 22-05-2020 01:45:00 15.9 C 10.97 g/m*3 15.9 C 0 km/h
23 22-05-2020 01:50:00 15.8 C 10.9 g/m*3 15.8 C 0 km/h
24 22-05-2020 01:55:00 15.7 C 10.97 g/m*3 15.7 C 0 km/h
25 22-05-2020 02:00:00 15.6 C 11.04 g/m*3 15.6 C 0 km/h
Sensor: Nr:Datum:Temp:Abs-Feuchte:Windchill:Wind:
Aussen-T/F 26 22-05-2020 02:05:00 15.6 C 11.04 g/m*3 15.6 C 0 km/h
27 22-05-2020 02:10:00 15.5 C 10.97 g/m*3 15.5 C 0 km/h
28 22-05-2020 02:15:00 15.4 C 10.9 g/m*3 15.4 C 0 km/h
29 22-05-2020 02:20:00 15.3 C 10.97 g/m*3 15.3 C 0 km/h
30 22-05-2020 02:25:00 15.3 C 10.97 g/m*3 15.3 C 0 km/h
31 22-05-2020 02:30:00 15.3 C 11.1 g/m*3 15.3 C 0 km/h
32 22-05-2020 02:35:00 15.2 C 11.03 g/m*3 15.2 C 0 km/h
33 22-05-2020 02:40:00 15.2 C 11.03 g/m*3 15.2 C 0 km/h
34 22-05-2020 02:45:00 15.1 C 10.97 g/m*3 15.1 C 0 km/h
35 22-05-2020 02:50:00 15.1 C 10.97 g/m*3 15.1 C 0 km/h
36 22-05-2020 02:55:00 15 C 10.9 g/m*3 15 C 0 km/h
37 22-05-2020 03:00:00 14.9 C 10.83 g/m*3 14.9 C 0 km/h
38 22-05-2020 03:05:00 14.9 C 10.96 g/m*3 14.9 C 0 km/h
39 22-05-2020 03:10:00 14.8 C 10.89 g/m*3 14.8 C 0 km/h
40 22-05-2020 03:15:00 14.8 C 10.89 g/m*3 14.8 C 0 km/h
41 22-05-2020 03:20:00 14.8 C 10.89 g/m*3 14.8 C 0 km/h
42 22-05-2020 03:25:00 14.7 C 10.83 g/m*3 14.7 C 0 km/h
43 22-05-2020 03:30:00 14.6 C 10.76 g/m*3 14.6 C 0 km/h
44 22-05-2020 03:35:00 14.5 C 10.7 g/m*3 14.5 C 0 km/h
45 22-05-2020 03:40:00 14.4 C 10.63 g/m*3 14.4 C 0 km/h
46 22-05-2020 03:45:00 14.4 C 10.63 g/m*3 14.4 C 0 km/h
47 22-05-2020 03:50:00 14.3 C 10.57 g/m*3 14.3 C 0 km/h
48 22-05-2020 03:55:00 14.2 C 10.5 g/m*3 14.2 C 0 km/h
49 22-05-2020 04:00:00 14.1 C 10.56 g/m*3 14.1 C 0 km/h
50 22-05-2020 04:05:00 13.9 C 10.43 g/m*3 13.9 C 0 km/h
Sensor: Nr:Datum:Temp:Abs-Feuchte:Windchill:Wind:
Aussen-T/F 51 22-05-2020 04:10:00 13.8 C 10.37 g/m*3 13.8 C 0 km/h
52 22-05-2020 04:15:00 13.7 C 10.42 g/m*3 13.7 C 0 km/h
53 22-05-2020 04:20:00 13.7 C 10.54 g/m*3 13.7 C 0 km/h
54 22-05-2020 04:25:00 13.6 C 10.47 g/m*3 13.6 C 0 km/h
55 22-05-2020 04:30:00 13.6 C 10.47 g/m*3 13.6 C 0 km/h
56 22-05-2020 04:35:00 13.4 C 10.35 g/m*3 13.4 C 0 km/h
57 22-05-2020 04:40:00 13.4 C 10.35 g/m*3 13.4 C 0 km/h
58 22-05-2020 04:45:00 13.3 C 10.28 g/m*3 13.3 C 0 km/h
59 22-05-2020 04:50:00 13.3 C 10.4 g/m*3 13.3 C 0 km/h
60 22-05-2020 04:55:00 13.2 C 10.33 g/m*3 13.2 C 0 km/h
61 22-05-2020 05:00:00 13.2 C 10.33 g/m*3 13.2 C 0 km/h
62 22-05-2020 05:05:00 13.2 C 10.33 g/m*3 13.2 C 0 km/h
63 22-05-2020 05:10:00 13.1 C 10.38 g/m*3 13.1 C 0 km/h
64 22-05-2020 05:15:00 13.1 C 10.38 g/m*3 13.1 C 0 km/h
65 22-05-2020 05:20:00 13 C 10.32 g/m*3 13 C 0 km/h
66 22-05-2020 05:25:00 13 C 10.32 g/m*3 13 C 0 km/h
67 22-05-2020 05:30:00 12.9 C 10.26 g/m*3 12.9 C 0 km/h
68 22-05-2020 05:35:00 12.8 C 10.19 g/m*3 12.8 C 0 km/h
69 22-05-2020 05:40:00 12.8 C 10.19 g/m*3 12.8 C 0 km/h
70 22-05-2020 05:45:00 12.8 C 10.3 g/m*3 12.8 C 0 km/h
71 22-05-2020 05:50:00 12.7 C 10.24 g/m*3 12.7 C 0 km/h
72 22-05-2020 05:55:00 12.8 C 10.3 g/m*3 12.8 C 0 km/h
73 22-05-2020 06:00:00 12.8 C 10.3 g/m*3 12.8 C 0 km/h
74 22-05-2020 06:05:00 12.8 C 10.3 g/m*3 12.8 C 0 km/h
75 22-05-2020 06:10:00 12.8 C 10.42 g/m*3 12.8 C 0 km/h
Sensor: Nr:Datum:Temp:Abs-Feuchte:Windchill:Wind:
Aussen-T/F 76 22-05-2020 06:15:00 12.9 C 10.48 g/m*3 12.9 C 0 km/h
77 22-05-2020 06:20:00 13.1 C 10.61 g/m*3 13.1 C 0 km/h
78 22-05-2020 06:25:00 13.1 C 10.61 g/m*3 13.1 C 0 km/h
79 22-05-2020 06:30:00 13.2 C 10.68 g/m*3 13.2 C 0 km/h
80 22-05-2020 06:35:00 13.3 C 10.74 g/m*3 13.3 C 0 km/h
81 22-05-2020 06:40:00 13.5 C 10.99 g/m*3 13.5 C 0 km/h
82 22-05-2020 06:45:00 13.7 C 11.13 g/m*3 13.7 C 0 km/h
83 22-05-2020 06:50:00 13.8 C 11.2 g/m*3 13.8 C 0 km/h
84 22-05-2020 06:55:00 14 C 11.34 g/m*3 14 C 0 km/h
85 22-05-2020 07:00:00 14.2 C 11.48 g/m*3 14.2 C 0 km/h
86 22-05-2020 07:05:00 14.3 C 11.55 g/m*3 14.3 C 0 km/h
87 22-05-2020 07:10:00 14.4 C 11.5 g/m*3 14.4 C 0 km/h
88 22-05-2020 07:15:00 14.6 C 11.64 g/m*3 14.6 C 0 km/h
89 22-05-2020 07:20:00 14.7 C 11.71 g/m*3 14.7 C 0 km/h
90 22-05-2020 07:25:00 14.9 C 11.85 g/m*3 14.9 C 0 km/h
91 22-05-2020 07:30:00 15 C 11.93 g/m*3 15 C 0 km/h
92 22-05-2020 07:35:00 15.2 C 11.94 g/m*3 15.2 C 0 km/h
93 22-05-2020 07:40:00 15.3 C 12.01 g/m*3 15.3 C 0 km/h
94 22-05-2020 07:45:00 15.4 C 11.96 g/m*3 15.4 C 0 km/h
95 22-05-2020 07:50:00 15.6 C 12.1 g/m*3 15.6 C 0 km/h
96 22-05-2020 07:55:00 15.8 C 12.11 g/m*3 15.8 C 0 km/h
97 22-05-2020 08:00:00 16 C 12.26 g/m*3 16 C 0 km/h
98 22-05-2020 08:05:00 16.2 C 12.27 g/m*3 16.2 C 1.6 km/h
99 22-05-2020 08:10:00 16.4 C 12.28 g/m*3 16.4 C 0 km/h
100 22-05-2020 08:15:00 16.7 C 12.22 g/m*3 16.7 C 4.8 km/h
Sensor: Nr:Datum:Temp:Abs-Feuchte:Windchill:Wind:
Aussen-T/F 101 22-05-2020 08:20:00 17.1 C 12.37 g/m*3 17.1 C 4.8 km/h
102 22-05-2020 08:25:00 17.4 C 12.45 g/m*3 17.4 C 3.2 km/h
103 22-05-2020 08:30:00 17.7 C 12.67 g/m*3 17.7 C 6.4 km/h
104 22-05-2020 08:35:00 18.1 C 12.52 g/m*3 18.1 C 6.4 km/h
105 22-05-2020 08:40:00 18.4 C 12.58 g/m*3 18.4 C 4.8 km/h
106 22-05-2020 08:45:00 18.7 C 12.65 g/m*3 18.7 C 6.4 km/h
107 22-05-2020 08:50:00 18.9 C 12.8 g/m*3 18.9 C 1.6 km/h
108 22-05-2020 08:55:00 19.1 C 12.79 g/m*3 19.1 C 6.4 km/h
109 22-05-2020 09:00:00 19.3 C 12.77 g/m*3 19.3 C 8.1 km/h
110 22-05-2020 09:05:00 19.3 C 12.77 g/m*3 19.3 C 8.1 km/h
111 22-05-2020 09:10:00 19.4 C 12.68 g/m*3 19.4 C 8.1 km/h
112 22-05-2020 09:15:00 19.6 C 12.83 g/m*3 19.6 C 6.4 km/h
113 22-05-2020 09:20:00 19.8 C 12.98 g/m*3 19.8 C 8.1 km/h
114 22-05-2020 09:25:00 19.9 C 12.89 g/m*3 19.9 C 6.4 km/h
115 22-05-2020 09:30:00 20.1 C 12.86 g/m*3 20.1 C 8.1 km/h
116 22-05-2020 09:35:00 20.1 C 12.86 g/m*3 20.1 C 6.4 km/h
117 22-05-2020 09:40:00 20.2 C 13.11 g/m*3 20.2 C 4.8 km/h
118 22-05-2020 09:45:00 20.3 C 13.19 g/m*3 20.3 C 3.2 km/h
119 22-05-2020 09:50:00 20.4 C 13.27 g/m*3 20.4 C 3.2 km/h
120 22-05-2020 09:55:00 20.6 C 13.24 g/m*3 20.6 C 3.2 km/h
121 22-05-2020 10:00:00 20.7 C 13.32 g/m*3 20.7 C 1.6 km/h
122 22-05-2020 10:05:00 20.9 C 13.48 g/m*3 20.9 C 1.6 km/h
123 22-05-2020 10:10:00 21.1 C 13.45 g/m*3 21.1 C 0 km/h
124 22-05-2020 10:15:00 21.3 C 13.61 g/m*3 21.3 C 0 km/h
125 22-05-2020 10:20:00 21.5 C 13.58 g/m*3 21.5 C 0 km/h
Sensor: Nr:Datum:Temp:Abs-Feuchte:Windchill:Wind:
Aussen-T/F 126 22-05-2020 10:25:00 21.7 C 13.73 g/m*3 21.7 C 0 km/h
127 22-05-2020 10:30:00 21.8 C 13.62 g/m*3 21.8 C 0 km/h
128 22-05-2020 10:35:00 21.9 C 13.7 g/m*3 21.9 C 0 km/h
129 22-05-2020 10:40:00 21.9 C 13.7 g/m*3 21.9 C 1.6 km/h
130 22-05-2020 10:45:00 22.1 C 13.86 g/m*3 22.1 C 1.6 km/h
131 22-05-2020 10:50:00 22.3 C 13.82 g/m*3 22.3 C 4.8 km/h
132 22-05-2020 10:55:00 22.6 C 14.06 g/m*3 22.6 C 1.6 km/h
133 22-05-2020 11:00:00 22.8 C 14.02 g/m*3 22.8 C 4.8 km/h
134 22-05-2020 11:05:00 23 C 14.18 g/m*3 23 C 3.2 km/h
135 22-05-2020 11:10:00 23.2 C 13.93 g/m*3 23.2 C 3.2 km/h
136 22-05-2020 11:15:00 23.4 C 13.88 g/m*3 23.4 C 6.4 km/h
137 22-05-2020 11:20:00 23.5 C 13.96 g/m*3 23.5 C 8.1 km/h
138 22-05-2020 11:25:00 23.7 C 14.33 g/m*3 23.7 C 8.1 km/h
139 22-05-2020 11:30:00 23.8 C 13.77 g/m*3 23.8 C 11.3 km/h
140 22-05-2020 11:35:00 23.9 C 13.63 g/m*3 23.9 C 9.7 km/h
141 22-05-2020 11:40:00 24 C 13.71 g/m*3 24 C 9.7 km/h
142 22-05-2020 11:45:00 24.1 C 13.78 g/m*3 24.1 C 3.2 km/h
143 22-05-2020 11:50:00 24.3 C 13.72 g/m*3 24.3 C 6.4 km/h
144 22-05-2020 11:55:00 24.4 C 13.58 g/m*3 24.4 C 8.1 km/h
145 22-05-2020 12:00:00 24.4 C 13.35 g/m*3 24.4 C 9.7 km/h
146 22-05-2020 12:05:00 24.4 C 13.35 g/m*3 24.4 C 9.7 km/h
147 22-05-2020 12:10:00 24.5 C 13.65 g/m*3 24.5 C 9.7 km/h
148 22-05-2020 12:15:00 24.4 C 13.35 g/m*3 24.4 C 16.1 km/h
149 22-05-2020 12:20:00 24.4 C 13.8 g/m*3 24.4 C 3.2 km/h
150 22-05-2020 12:25:00 24.5 C 13.43 g/m*3 24.5 C 8.1 km/h
Sensor: Nr:Datum:Temp:Abs-Feuchte:Windchill:Wind:
Aussen-T/F 151 22-05-2020 12:30:00 24.6 C 13.73 g/m*3 24.6 C 6.4 km/h
152 22-05-2020 12:35:00 24.5 C 13.65 g/m*3 24.5 C 6.4 km/h
153 22-05-2020 12:40:00 24.6 C 13.73 g/m*3 24.6 C 4.8 km/h
154 22-05-2020 12:45:00 24.6 C 13.73 g/m*3 24.6 C 6.4 km/h
155 22-05-2020 12:50:00 24.6 C 14.18 g/m*3 24.6 C 4.8 km/h
156 22-05-2020 12:55:00 24.7 C 13.81 g/m*3 24.7 C 6.4 km/h
157 22-05-2020 13:00:00 24.7 C 14.49 g/m*3 24.7 C 1.6 km/h
158 22-05-2020 13:05:00 24.7 C 14.26 g/m*3 24.7 C 4.8 km/h
159 22-05-2020 13:10:00 24.7 C 14.03 g/m*3 24.7 C 3.2 km/h
160 22-05-2020 13:15:00 24.8 C 14.11 g/m*3 24.8 C 3.2 km/h
161 22-05-2020 13:20:00 24.9 C 13.96 g/m*3 24.9 C 11.3 km/h
162 22-05-2020 13:25:00 24.9 C 13.73 g/m*3 24.9 C 8.1 km/h
163 22-05-2020 13:30:00 25.1 C 15.28 g/m*3 25.1 C 1.6 km/h
164 22-05-2020 13:35:00 25.3 C 13.81 g/m*3 25.3 C 8.1 km/h
165 22-05-2020 13:40:00 25.4 C 13.89 g/m*3 25.4 C 8.1 km/h
166 22-05-2020 13:45:00 25.6 C 14.76 g/m*3 25.6 C 4.8 km/h
167 22-05-2020 13:50:00 25.8 C 13.96 g/m*3 25.8 C 9.7 km/h
168 22-05-2020 13:55:00 26 C 13.88 g/m*3 26 C 8.1 km/h
169 22-05-2020 14:00:00 26.1 C 14.44 g/m*3 26.1 C 11.3 km/h
170 22-05-2020 14:05:00 26.2 C 14.77 g/m*3 26.2 C 8.1 km/h
171 22-05-2020 14:10:00 26.2 C 14.28 g/m*3 26.2 C 4.8 km/h
172 22-05-2020 14:15:00 26.2 C 14.52 g/m*3 26.2 C 4.8 km/h
173 22-05-2020 14:20:00 26.3 C 14.36 g/m*3 26.3 C 4.8 km/h
174 22-05-2020 14:25:00 26.3 C 14.61 g/m*3 26.3 C 6.4 km/h
175 22-05-2020 14:30:00 26.4 C 14.19 g/m*3 26.4 C 6.4 km/h
Sensor: Nr:Datum:Temp:Abs-Feuchte:Windchill:Wind:
Aussen-T/F 176 22-05-2020 14:35:00 26.3 C 14.11 g/m*3 26.3 C 11.3 km/h
177 22-05-2020 14:40:00 26.2 C 14.03 g/m*3 26.2 C 11.3 km/h
178 22-05-2020 14:45:00 26.2 C 13.79 g/m*3 26.2 C 9.7 km/h
179 22-05-2020 14:50:00 26.3 C 13.86 g/m*3 26.3 C 4.8 km/h
180 22-05-2020 14:55:00 26.4 C 13.69 g/m*3 26.4 C 12.9 km/h
181 22-05-2020 15:00:00 26.3 C 13.62 g/m*3 26.3 C 11.3 km/h
182 22-05-2020 15:05:00 26.3 C 13.37 g/m*3 26.3 C 14.5 km/h
183 22-05-2020 15:10:00 26.5 C 13.52 g/m*3 26.5 C 9.7 km/h
184 22-05-2020 15:15:00 26.6 C 13.59 g/m*3 26.6 C 14.5 km/h
185 22-05-2020 15:20:00 26.8 C 13.74 g/m*3 26.8 C 9.7 km/h
186 22-05-2020 15:25:00 26.8 C 13.49 g/m*3 26.8 C 16.1 km/h
187 22-05-2020 15:30:00 26.6 C 13.34 g/m*3 26.6 C 12.9 km/h
188 22-05-2020 15:35:00 26.4 C 13.44 g/m*3 26.4 C 8.1 km/h
189 22-05-2020 15:40:00 26.2 C 13.54 g/m*3 26.2 C 14.5 km/h
190 22-05-2020 15:45:00 26.1 C 13.46 g/m*3 26.1 C 11.3 km/h
191 22-05-2020 15:50:00 25.9 C 13.32 g/m*3 25.9 C 9.7 km/h
192 22-05-2020 15:55:00 25.9 C 13.56 g/m*3 25.9 C 11.3 km/h
193 22-05-2020 16:00:00 25.9 C 13.56 g/m*3 25.9 C 9.7 km/h
194 22-05-2020 16:05:00 25.9 C 13.8 g/m*3 25.9 C 12.9 km/h
195 22-05-2020 16:10:00 25.9 C 13.32 g/m*3 25.9 C 12.9 km/h
196 22-05-2020 16:15:00 25.9 C 13.32 g/m*3 25.9 C 11.3 km/h
197 22-05-2020 16:20:00 25.9 C 13.32 g/m*3 25.9 C 17.7 km/h
198 22-05-2020 16:25:00 26.1 C 13.46 g/m*3 26.1 C 12.9 km/h
199 22-05-2020 16:30:00 26.2 C 13.79 g/m*3 26.2 C 12.9 km/h
200 22-05-2020 16:35:00 26.2 C 13.29 g/m*3 26.2 C 8.1 km/h
Sensor: Nr:Datum:Temp:Abs-Feuchte:Windchill:Wind:
Aussen-T/F 201 22-05-2020 16:40:00 26.2 C 13.79 g/m*3 26.2 C 12.9 km/h
202 22-05-2020 16:45:00 26.3 C 13.62 g/m*3 26.3 C 12.9 km/h
203 22-05-2020 16:50:00 26.3 C 13.86 g/m*3 26.3 C 12.9 km/h
204 22-05-2020 16:55:00 26.2 C 13.54 g/m*3 26.2 C 9.7 km/h
205 22-05-2020 17:00:00 26.2 C 13.79 g/m*3 26.2 C 12.9 km/h
206 22-05-2020 17:05:00 26.1 C 13.46 g/m*3 26.1 C 9.7 km/h
207 22-05-2020 17:10:00 26.1 C 13.46 g/m*3 26.1 C 11.3 km/h
208 22-05-2020 17:15:00 26.1 C 13.71 g/m*3 26.1 C 6.4 km/h
209 22-05-2020 17:20:00 26.2 C 13.79 g/m*3 26.2 C 6.4 km/h
210 22-05-2020 17:25:00 26.3 C 14.11 g/m*3 26.3 C 6.4 km/h
211 22-05-2020 17:30:00 26.4 C 14.44 g/m*3 26.4 C 4.8 km/h
212 22-05-2020 17:35:00 26.4 C 13.69 g/m*3 26.4 C 8.1 km/h
213 22-05-2020 17:40:00 26.4 C 14.19 g/m*3 26.4 C 3.2 km/h
214 22-05-2020 17:45:00 26.3 C 14.36 g/m*3 26.3 C 6.4 km/h
215 22-05-2020 17:50:00 26.2 C 14.03 g/m*3 26.2 C 4.8 km/h
216 22-05-2020 17:55:00 26.1 C 13.71 g/m*3 26.1 C 8.1 km/h
217 22-05-2020 18:00:00 25.9 C 13.8 g/m*3 25.9 C 9.7 km/h
218 22-05-2020 18:05:00 25.9 C 14.04 g/m*3 25.9 C 8.1 km/h
219 22-05-2020 18:10:00 25.8 C 14.2 g/m*3 25.8 C 9.7 km/h
220 22-05-2020 18:15:00 25.7 C 13.65 g/m*3 25.7 C 11.3 km/h
221 22-05-2020 18:20:00 25.6 C 14.52 g/m*3 25.6 C 11.3 km/h
222 22-05-2020 18:25:00 25.3 C 14.51 g/m*3 25.3 C 12.9 km/h
223 22-05-2020 18:30:00 25 C 14.73 g/m*3 25 C 4.8 km/h
224 22-05-2020 18:35:00 24.8 C 14.8 g/m*3 24.8 C 8.1 km/h
225 22-05-2020 18:40:00 24.7 C 14.94 g/m*3 24.7 C 3.2 km/h
Sensor: Nr:Datum:Temp:Abs-Feuchte:Windchill:Wind:
Aussen-T/F 226 22-05-2020 18:45:00 24.4 C 14.91 g/m*3 24.4 C 4.8 km/h
227 22-05-2020 18:50:00 24.2 C 14.74 g/m*3 24.2 C 3.2 km/h
228 22-05-2020 18:55:00 24.1 C 14.66 g/m*3 24.1 C 6.4 km/h
229 22-05-2020 19:00:00 24 C 14.36 g/m*3 24 C 9.7 km/h
230 22-05-2020 19:05:00 24 C 14.14 g/m*3 24 C 4.8 km/h
231 22-05-2020 19:10:00 24.1 C 14 g/m*3 24.1 C 8.1 km/h
232 22-05-2020 19:15:00 24.4 C 13.8 g/m*3 24.4 C 12.9 km/h
233 22-05-2020 19:20:00 24.6 C 14.18 g/m*3 24.6 C 6.4 km/h
234 22-05-2020 19:25:00 24.7 C 14.26 g/m*3 24.7 C 4.8 km/h
235 22-05-2020 19:30:00 24.7 C 14.49 g/m*3 24.7 C 0 km/h
236 22-05-2020 19:35:00 24.6 C 14.18 g/m*3 24.6 C 4.8 km/h
237 22-05-2020 19:40:00 24.4 C 14.47 g/m*3 24.4 C 11.3 km/h
238 22-05-2020 19:45:00 24.2 C 14.08 g/m*3 24.2 C 11.3 km/h
239 22-05-2020 19:50:00 23.9 C 14.06 g/m*3 23.9 C 8.1 km/h
240 22-05-2020 19:55:00 23.7 C 13.9 g/m*3 23.7 C 9.7 km/h
241 22-05-2020 20:00:00 23.5 C 13.96 g/m*3 23.5 C 9.7 km/h
242 22-05-2020 20:05:00 23.2 C 14.14 g/m*3 23.2 C 8.1 km/h
243 22-05-2020 20:10:00 22.7 C 14.14 g/m*3 22.7 C 12.9 km/h
244 22-05-2020 20:15:00 22.2 C 13.94 g/m*3 22.2 C 22.5 km/h
245 22-05-2020 20:20:00 21.7 C 13.93 g/m*3 21.7 C 16.1 km/h
246 22-05-2020 20:25:00 21.2 C 13.71 g/m*3 21.2 C 14.5 km/h
247 22-05-2020 20:30:00 20.8 C 13.76 g/m*3 20.8 C 11.3 km/h
248 22-05-2020 20:35:00 20.5 C 13.7 g/m*3 20.5 C 12.9 km/h
249 22-05-2020 20:40:00 20.2 C 13.81 g/m*3 20.2 C 6.4 km/h
250 22-05-2020 20:45:00 19.9 C 13.57 g/m*3 19.9 C 12.9 km/h
Sensor: Nr:Datum:Temp:Abs-Feuchte:Windchill:Wind:
Aussen-T/F 251 22-05-2020 20:50:00 19.7 C 13.41 g/m*3 19.7 C 11.3 km/h
252 22-05-2020 20:55:00 19.5 C 13.59 g/m*3 19.5 C 19.3 km/h
253 22-05-2020 21:00:00 19.3 C 13.6 g/m*3 19.3 C 8.1 km/h
254 22-05-2020 21:05:00 19 C 13.53 g/m*3 19 C 9.7 km/h
255 22-05-2020 21:10:00 18.8 C 13.53 g/m*3 18.8 C 6.4 km/h
256 22-05-2020 21:15:00 18.6 C 13.69 g/m*3 18.6 C 1.6 km/h
257 22-05-2020 21:20:00 18.4 C 13.53 g/m*3 18.4 C 3.2 km/h
258 22-05-2020 21:25:00 18.3 C 13.6 g/m*3 18.3 C 4.8 km/h
259 22-05-2020 21:30:00 18.2 C 13.52 g/m*3 18.2 C 3.2 km/h
260 22-05-2020 21:35:00 18.1 C 13.6 g/m*3 18.1 C 0 km/h
261 22-05-2020 21:40:00 18 C 13.67 g/m*3 18 C 0 km/h
262 22-05-2020 21:45:00 17.9 C 13.59 g/m*3 17.9 C 0 km/h
263 22-05-2020 21:50:00 17.8 C 13.66 g/m*3 17.8 C 0 km/h
264 22-05-2020 21:55:00 17.8 C 13.66 g/m*3 17.8 C 0 km/h
265 22-05-2020 22:00:00 17.7 C 13.58 g/m*3 17.7 C 1.6 km/h
266 22-05-2020 22:05:00 17.7 C 13.73 g/m*3 17.7 C 0 km/h
267 22-05-2020 22:10:00 17.6 C 13.65 g/m*3 17.6 C 0 km/h
268 22-05-2020 22:15:00 17.6 C 13.8 g/m*3 17.6 C 0 km/h
269 22-05-2020 22:20:00 17.6 C 13.8 g/m*3 17.6 C 0 km/h
270 22-05-2020 22:25:00 17.6 C 13.8 g/m*3 17.6 C 3.2 km/h
271 22-05-2020 22:30:00 17.5 C 13.72 g/m*3 17.5 C 4.8 km/h
272 22-05-2020 22:35:00 17.4 C 13.78 g/m*3 17.4 C 4.8 km/h
273 22-05-2020 22:40:00 17.4 C 13.78 g/m*3 17.4 C 3.2 km/h
274 22-05-2020 22:45:00 17.3 C 13.7 g/m*3 17.3 C 0 km/h
275 22-05-2020 22:50:00 17.3 C 13.7 g/m*3 17.3 C 1.6 km/h
Sensor: Nr:Datum:Temp:Abs-Feuchte:Windchill:Wind:
Aussen-T/F 276 22-05-2020 22:55:00 17.3 C 13.7 g/m*3 17.3 C 3.2 km/h
277 22-05-2020 23:00:00 17.3 C 13.7 g/m*3 17.3 C 6.4 km/h
278 22-05-2020 23:05:00 17.2 C 13.62 g/m*3 17.2 C 4.8 km/h
279 22-05-2020 23:10:00 17.2 C 13.62 g/m*3 17.2 C 3.2 km/h
280 22-05-2020 23:15:00 17.2 C 13.62 g/m*3 17.2 C 1.6 km/h
281 22-05-2020 23:20:00 17.2 C 13.77 g/m*3 17.2 C 1.6 km/h
282 22-05-2020 23:25:00 17.1 C 13.68 g/m*3 17.1 C 3.2 km/h
283 22-05-2020 23:30:00 17.1 C 13.68 g/m*3 17.1 C 0 km/h
284 22-05-2020 23:35:00 17.1 C 13.68 g/m*3 17.1 C 0 km/h
285 22-05-2020 23:40:00 17.1 C 13.68 g/m*3 17.1 C 0 km/h
286 22-05-2020 23:45:00 16.9 C 13.52 g/m*3 16.9 C 4.8 km/h
287 22-05-2020 23:50:00 16.9 C 13.52 g/m*3 16.9 C 3.2 km/h
288 22-05-2020 23:55:00 16.8 C 13.44 g/m*3 16.8 C 0 km/h

Legende:
   Min
   Max


Maximal/Minimal-Werte vom 22.05.2020 - 22.05.2020

Sensor Min Max Avg
Temp
(Aussen-T/F)
12.7 °C
22-05-2020  05:50:00
26.8 °C
22-05-2020  15:20:00
19.98 °C
Abs-Feuchte
(Aussen-T/F)
10.19 g/m*3
22-05-2020  05:35:00
15.28 g/m*3
22-05-2020  13:30:00
12.74 g/m*3
Windchill
(Aussen-T/F)
12.7 C
22-05-2020  05:50:00
26.8 C
22-05-2020  15:20:00
19.91 C

Die Daten stammen von einer Davis Vantage Pro 2 Wetter-Station und werden unter Linux mit der Software wview2wettercgi und aufbereitet. Alle Angaben erfolgen ohne Gewähr für ihre Vollständigkeit oder Richtigkeit.
Kontakt: Rainer Krienke krienke@uni-koblenz.de . Meine Webseiten an der Uni Koblenz oder privat.
Version: $Revision: 0.78 $